Shiloh, TN

1:55 PM CDT on September 01, 2014 (GMT -0500)
City | Change Station
CLOSE
Current Station
Personal Weather Station
Location: Corinth, MS
Elevation: 435 ft
Nearby Weather Stations

Elev 435 ft 34.95 °N, 88.50 °W | Updated 11 minutes ago

Partly Cloudy
Partly Cloudy
85.7 °F
Feels Like 92 °F
N
0.0
Wind Variable Wind from SE
Gusts 3.0 mph

Today
High -- | Low -- °F
--% Chance of Precip.
Yesterday
High -- | Low -- °F
Precip. -- in
6:25 AM 7:20 PM
Waxing Crescent, 43% visible
Pressure 30.06 in
Visibility 10.0 miles
Clouds Few 4100 ft
Scattered Clouds 6000 ft
Scattered Clouds 7000 ft
Heat Index 92 °F
Dew Point 72 °F
Humidity 64%
Rainfall 0.00 in
Snow Depth Not available.
UV 8 out of 12
Pollen 10.50 out of 12
Air Quality Not available.
Flu Activity Not available.
METAR KCRX 011835Z AUTO 22009KT 10SM FEW041 SCT060 SCT070 31/21 A3006 RMK AO2

More Conditions Fewer Conditions

Pressure 30.06 in
Visibility 10.0 miles
Clouds Few 4100 ft
Scattered Clouds 6000 ft
Scattered Clouds 7000 ft
Heat Index 92 °F
Dew Point 72 °F
Humidity 64%
Rainfall 0.00 in
Snow Depth Not available.
UV 8 out of 12
Pollen 10.50 out of 12
Air Quality Not available.
Flu Activity Not available.
METAR KCRX 011835Z AUTO 22009KT 10SM FEW041 SCT060 SCT070 31/21 A3006 RMK AO2

More Conditions Fewer Conditions

10-Day Weather Forecast

Almanac

Astronomy

Sep. 01, 2014 Rise Set
Actual Time 6:25 AM CDT 7:20 PM CDT
Civil Twilight 6:00 AM CDT 7:45 PM CDT
Nautical Twilight 5:29 AM CDT 8:16 PM CDT
Astronomical Twilight 4:57 AM CDT 8:48 PM CDT
Moon 12:56 PM CDT 11:36 PM CDT
Length of Visible Light 13h 45m
Length of Day
12h 54m
Tomorrow will be 2m 8s shorter.
Waxing Crescent, 43% of the Moon is Illuminated
Today
Waxing Crescent
Sep 2
First Quarter
Sep 8
Full
Sep 15
Last Quarter
Sep 24
New

Today's Extremes

State Highs State Lows

Community

WunderPhotos

Upload Photos

1,749,359 photos uploaded!

Nearby

Snow Depth

Station Depth Elevation
No new snow has been reported.

Earthquake Activity

City Distance Mag. Time & Date
Tiptonville, Tennessee 109 miles 2.9 11:19 PM CDT
2014-08-31
Minimum magnitude displayed is 2.5.

Coastal Water Temperatures

Place Temperature
No Stations Reporting

Nearby Weather Stations